createdAt,value
2019-05-21T00:02:21.556Z,12.6
2019-05-21T00:04:55.270Z,12.6
2019-05-21T00:07:29.796Z,12.6
2019-05-21T00:10:03.704Z,12.6
2019-05-21T00:12:37.453Z,12.6
2019-05-21T00:15:11.963Z,12.6
2019-05-21T00:17:45.959Z,12.6
2019-05-21T00:20:19.868Z,12.6
2019-05-21T00:22:53.975Z,12.6
2019-05-21T00:25:27.952Z,12.6
2019-05-21T00:28:01.918Z,12.6
2019-05-21T00:30:36.269Z,12.6
2019-05-21T00:33:10.273Z,12.6
2019-05-21T00:35:43.991Z,12.6
2019-05-21T00:38:17.786Z,12.6
2019-05-21T00:40:51.579Z,12.6
2019-05-21T00:43:25.845Z,12.6
2019-05-21T00:45:59.935Z,12.6
2019-05-21T00:48:33.956Z,12.6
2019-05-21T00:51:07.713Z,12.6
2019-05-21T00:53:41.906Z,12.6
2019-05-21T00:56:14.228Z,12.6
2019-05-21T00:58:46.679Z,12.6
2019-05-21T01:01:19.253Z,12.6
2019-05-21T01:03:51.654Z,12.6
2019-05-21T01:06:24.092Z,12.6
2019-05-21T01:08:56.321Z,12.6
2019-05-21T01:11:28.696Z,12.7
2019-05-21T01:14:01.656Z,12.7
2019-05-21T01:16:34.507Z,12.7
2019-05-21T01:19:06.757Z,12.7
2019-05-21T01:21:39.049Z,12.7
2019-05-21T01:24:11.376Z,12.7
2019-05-21T01:26:43.689Z,12.7
2019-05-21T01:29:16.121Z,12.7
2019-05-21T01:31:26.509Z,12.7
2019-05-21T01:34:00.836Z,12.7
2019-05-21T01:36:33.340Z,12.7
2019-05-21T01:39:05.574Z,12.7
2019-05-21T01:41:38.325Z,12.7
2019-05-21T01:44:10.599Z,12.7
2019-05-21T01:46:43.151Z,12.8
2019-05-21T01:49:15.796Z,12.8
2019-05-21T01:51:48.289Z,12.8
2019-05-21T01:54:20.629Z,12.8
2019-05-21T01:56:53.055Z,12.8
2019-05-21T01:59:25.274Z,12.8
2019-05-21T02:01:57.797Z,12.7
2019-05-21T02:04:30.722Z,12.7
2019-05-21T02:07:03.354Z,12.7
2019-05-21T02:09:35.485Z,12.7
2019-05-21T02:12:11.539Z,12.7
2019-05-21T02:14:43.814Z,12.7
2019-05-21T02:17:16.441Z,12.7
2019-05-21T02:19:49.186Z,12.7
2019-05-21T02:22:21.661Z,12.7
2019-05-21T02:24:53.954Z,12.7
2019-05-21T02:27:26.215Z,12.7
2019-05-21T02:29:58.491Z,12.7
2019-05-21T02:32:31.068Z,12.7
2019-05-21T02:35:03.881Z,12.7
2019-05-21T02:37:36.269Z,12.7
2019-05-21T02:40:08.837Z,12.7
2019-05-21T02:42:41.309Z,12.6
2019-05-21T02:45:13.661Z,12.6
2019-05-21T02:47:46.077Z,12.6
2019-05-21T02:50:19.026Z,12.6
2019-05-21T02:52:51.501Z,12.6
2019-05-21T02:55:23.846Z,12.6
2019-05-21T02:57:56.176Z,12.6
2019-05-21T03:00:28.479Z,12.6
2019-05-21T03:03:00.757Z,12.6
2019-05-21T03:05:33.531Z,12.6
2019-05-21T03:08:06.076Z,12.6
2019-05-21T03:10:38.476Z,12.5
2019-05-21T03:13:10.880Z,12.5
2019-05-21T03:15:43.219Z,12.5
2019-05-21T03:18:15.671Z,12.5
2019-05-21T03:20:48.102Z,12.5
2019-05-21T03:23:20.483Z,12.5
2019-05-21T03:25:52.774Z,12.5
2019-05-21T03:28:25.124Z,12.5
2019-05-21T03:31:26.803Z,12.4
2019-05-21T03:34:00.670Z,12.4
2019-05-21T03:36:35.242Z,12.4
2019-05-21T03:39:09.243Z,12.4
2019-05-21T03:41:43.003Z,12.4
2019-05-21T03:44:17.052Z,12.4
2019-05-21T03:46:50.963Z,12.4
2019-05-21T03:49:25.007Z,12.4
2019-05-21T03:51:58.719Z,12.4
2019-05-21T03:54:32.742Z,12.3
2019-05-21T03:57:06.506Z,12.3
2019-05-21T03:59:40.624Z,12.3
2019-05-21T04:02:14.470Z,12.3
2019-05-21T04:04:48.427Z,12.3
2019-05-21T04:07:22.691Z,12.3
2019-05-21T04:09:56.561Z,12.3
2019-05-21T04:12:30.487Z,12.4
2019-05-21T04:15:09.387Z,12.3
2019-05-21T04:17:43.149Z,12.3
2019-05-21T04:20:17.000Z,12.3
2019-05-21T04:22:51.405Z,12.3
2019-05-21T04:25:25.496Z,12.3
2019-05-21T04:27:59.292Z,12.3
2019-05-21T04:30:33.106Z,12.3
2019-05-21T04:33:06.896Z,12.3
2019-05-21T04:35:40.807Z,12.4
2019-05-21T04:38:15.086Z,12.4
2019-05-21T04:40:49.031Z,12.4
2019-05-21T04:43:22.795Z,12.4
2019-05-21T04:45:57.028Z,12.4
2019-05-21T04:48:29.358Z,12.4
2019-05-21T04:51:01.916Z,12.4
2019-05-21T04:53:34.324Z,12.4
2019-05-21T04:56:06.823Z,12.4
2019-05-21T04:58:39.291Z,12.4
2019-05-21T05:01:11.911Z,12.4
2019-05-21T05:03:43.997Z,12.4
2019-05-21T05:06:16.495Z,12.5
2019-05-21T05:08:49.318Z,12.5
2019-05-21T05:11:21.698Z,12.5
2019-05-21T05:13:53.955Z,12.5
2019-05-21T05:16:26.425Z,12.5
2019-05-21T05:18:58.602Z,12.5
2019-05-21T05:21:31.072Z,12.6
2019-05-21T05:24:03.674Z,12.6
2019-05-21T05:26:35.965Z,12.6
2019-05-21T05:29:08.464Z,12.6
2019-05-21T05:31:26.301Z,12.6
2019-05-21T05:34:00.149Z,12.6
2019-05-21T05:36:34.036Z,12.7
2019-05-21T05:39:08.148Z,12.7
2019-05-21T05:41:40.399Z,12.7
2019-05-21T05:44:12.728Z,12.7
2019-05-21T05:46:44.989Z,12.8
2019-05-21T05:49:17.511Z,12.8
2019-05-21T05:51:49.850Z,12.8
2019-05-21T05:54:22.288Z,12.8
2019-05-21T05:56:54.520Z,12.9
2019-05-21T05:59:26.922Z,12.9
2019-05-21T06:01:59.317Z,12.9
2019-05-21T06:04:31.894Z,12.9
2019-05-21T06:07:04.858Z,13
2019-05-21T06:09:37.426Z,13
2019-05-21T06:12:09.654Z,13
2019-05-21T06:14:42.111Z,13
2019-05-21T06:17:14.496Z,13.1
2019-05-21T06:19:46.986Z,13.1
2019-05-21T06:22:19.271Z,13.2
2019-05-21T06:24:51.782Z,13.2
2019-05-21T06:27:24.117Z,13.2
2019-05-21T06:29:56.761Z,13.2
2019-05-21T06:32:28.996Z,13.4
2019-05-21T06:35:01.539Z,13.4
2019-05-21T06:37:33.802Z,13.5
2019-05-21T06:40:06.575Z,13.6
2019-05-21T06:42:38.852Z,13.6
2019-05-21T06:45:11.384Z,13.7
2019-05-21T06:47:43.542Z,13.7
2019-05-21T06:50:16.039Z,13.8
2019-05-21T06:52:48.486Z,13.8
2019-05-21T06:55:21.153Z,14
2019-05-21T06:57:53.402Z,14
2019-05-21T07:00:25.791Z,14.1
2019-05-21T07:02:57.983Z,14.1
2019-05-21T07:05:30.431Z,14.1
2019-05-21T07:08:03.048Z,14.1
2019-05-21T07:10:35.652Z,14.3
2019-05-21T07:13:08.285Z,14.3
2019-05-21T07:15:40.884Z,14.3
2019-05-21T07:18:13.257Z,14.3
2019-05-21T07:20:45.527Z,14.4
2019-05-21T07:23:17.854Z,14.4
2019-05-21T07:25:50.578Z,14.5
2019-05-21T07:28:22.880Z,14.5
2019-05-21T07:31:26.862Z,14.6
2019-05-21T07:33:59.680Z,14.6
2019-05-21T07:36:32.342Z,14.7
2019-05-21T07:39:04.793Z,14.7
2019-05-21T07:41:37.550Z,14.8
2019-05-21T07:44:09.877Z,14.9
2019-05-21T07:46:42.481Z,14.9
2019-05-21T07:49:14.814Z,15
2019-05-21T07:51:47.276Z,15.1
2019-05-21T07:54:19.407Z,15.2
2019-05-21T07:56:52.003Z,15.2
2019-05-21T07:59:24.379Z,15.3
2019-05-21T08:01:56.808Z,15.3
2019-05-21T08:04:29.125Z,15.3
2019-05-21T08:07:01.518Z,15.3
2019-05-21T08:09:34.104Z,15.3
2019-05-21T08:12:40.228Z,15.3
2019-05-21T08:14:47.374Z,15.6
2019-05-21T08:17:19.947Z,15.6
2019-05-21T08:19:52.311Z,15.7
2019-05-21T08:22:24.942Z,15.7
2019-05-21T08:24:57.161Z,15.8
2019-05-21T08:27:30.140Z,15.8
2019-05-21T08:30:02.410Z,16
2019-05-21T08:32:34.699Z,16
2019-05-21T08:35:07.069Z,16.1
2019-05-21T08:37:39.819Z,16.1
2019-05-21T08:40:12.333Z,16.4
2019-05-21T08:42:44.744Z,16.4
2019-05-21T08:45:17.027Z,16.1
2019-05-21T08:47:49.526Z,16.1
2019-05-21T08:50:22.120Z,15.9
2019-05-21T08:52:54.655Z,15.9
2019-05-21T08:55:26.915Z,16
2019-05-21T08:58:08.333Z,16
2019-05-21T09:00:40.176Z,16
2019-05-21T09:03:12.524Z,15.9
2019-05-21T09:05:44.844Z,16.1
2019-05-21T09:08:17.250Z,16.1
2019-05-21T09:10:49.503Z,16.1
2019-05-21T09:13:22.233Z,16.1
2019-05-21T09:15:54.626Z,16.1
2019-05-21T09:18:26.952Z,16.1
2019-05-21T09:20:59.265Z,16.4
2019-05-21T09:23:31.844Z,16.4
2019-05-21T09:26:04.181Z,16.4
2019-05-21T09:28:36.737Z,16.4
2019-05-21T09:31:26.312Z,16.4
2019-05-21T09:34:00.203Z,16.4
2019-05-21T09:36:33.985Z,16.7
2019-05-21T09:39:07.837Z,16.7
2019-05-21T09:41:41.923Z,16.6
2019-05-21T09:44:16.345Z,16.6
2019-05-21T09:46:50.292Z,16.6
2019-05-21T09:49:24.380Z,16.8
2019-05-21T09:51:58.302Z,16.8
2019-05-21T09:54:32.601Z,16.8
2019-05-21T09:57:04.950Z,16.8
2019-05-21T09:59:37.812Z,17
2019-05-21T10:02:10.098Z,16.9
2019-05-21T10:04:42.568Z,16.9
2019-05-21T10:07:15.083Z,16.9
2019-05-21T10:09:47.784Z,17.4
2019-05-21T10:12:20.316Z,17.7
2019-05-21T10:14:52.900Z,17.7
2019-05-21T10:17:25.256Z,17.7
2019-05-21T10:19:59.643Z,17.6
2019-05-21T10:22:32.062Z,17.8
2019-05-21T10:25:04.383Z,18
2019-05-21T10:27:36.760Z,18
2019-05-21T10:30:10.032Z,18.1
2019-05-21T10:32:42.500Z,18.1
2019-05-21T10:35:15.201Z,18.2
2019-05-21T10:37:56.005Z,18.2
2019-05-21T10:40:28.514Z,18.4
2019-05-21T10:43:00.840Z,18.6
2019-05-21T10:45:33.462Z,18.6
2019-05-21T10:48:05.859Z,18.9
2019-05-21T10:50:38.448Z,18.9
2019-05-21T10:53:10.704Z,18.9
2019-05-21T10:55:43.175Z,18.9
2019-05-21T10:58:15.310Z,18.9
2019-05-21T11:00:47.690Z,18.9
2019-05-21T11:03:20.212Z,19.2
2019-05-21T11:06:11.058Z,19.2
2019-05-21T11:08:33.811Z,19
2019-05-21T11:11:06.455Z,19
2019-05-21T11:13:38.646Z,19.1
2019-05-21T11:16:12.033Z,19.1
2019-05-21T11:18:44.428Z,19.2
2019-05-21T11:21:17.013Z,19.2
2019-05-21T11:23:50.134Z,19.2
2019-05-21T11:26:22.539Z,19.2
2019-05-21T11:28:54.727Z,19
2019-05-21T11:31:27.028Z,19
2019-05-21T11:34:00.874Z,19.1
2019-05-21T11:36:34.802Z,19.1
2019-05-21T11:39:08.594Z,19.2
2019-05-21T11:41:42.441Z,19.2
2019-05-21T11:44:16.184Z,19.2
2019-05-21T11:46:50.091Z,19.2
2019-05-21T11:49:24.154Z,19.6
2019-05-21T11:51:58.277Z,19.6
2019-05-21T11:54:31.996Z,19.7
2019-05-21T11:57:06.154Z,19.7
2019-05-21T11:59:38.515Z,19.8
2019-05-21T12:02:11.295Z,19.9
2019-05-21T12:04:43.944Z,20
2019-05-21T12:07:16.342Z,20
2019-05-21T12:09:48.835Z,20.1
2019-05-21T12:12:21.484Z,20
2019-05-21T12:14:53.764Z,20
2019-05-21T12:17:26.509Z,20
2019-05-21T12:19:58.749Z,20.1
2019-05-21T12:22:31.328Z,20
2019-05-21T12:25:03.644Z,19.8
2019-05-21T12:27:36.230Z,19.8
2019-05-21T12:30:08.483Z,19.7
2019-05-21T12:32:40.838Z,19.7
2019-05-21T12:35:13.155Z,19.8
2019-05-21T12:37:45.479Z,19.8
2019-05-21T12:40:17.738Z,19.7
2019-05-21T12:42:50.180Z,19.8
2019-05-21T12:45:22.566Z,20
2019-05-21T12:47:55.329Z,20
2019-05-21T12:50:27.657Z,20.4
2019-05-21T12:53:00.191Z,20.6
2019-05-21T12:55:32.467Z,20.7
2019-05-21T12:58:04.917Z,20.7
2019-05-21T13:00:37.325Z,20.6
2019-05-21T13:03:09.995Z,20.8
2019-05-21T13:05:42.339Z,20.8
2019-05-21T13:08:14.956Z,20.6
2019-05-21T13:10:47.621Z,20.6
2019-05-21T13:13:20.124Z,21
2019-05-21T13:15:52.067Z,21
2019-05-21T13:18:24.278Z,21.1
2019-05-21T13:20:56.002Z,21.1
2019-05-21T13:23:28.125Z,21.3
2019-05-21T13:31:25.486Z,21.2
2019-05-21T13:33:59.988Z,21.2
2019-05-21T13:36:33.837Z,21.2
2019-05-21T13:39:07.787Z,21.5
2019-05-21T13:41:41.786Z,21.4
2019-05-21T13:44:15.689Z,21.3
2019-05-21T13:46:49.644Z,21.3
2019-05-21T13:49:24.036Z,21
2019-05-21T13:51:57.966Z,21.1
2019-05-21T13:54:32.313Z,21
2019-05-21T13:57:06.325Z,21
2019-05-21T13:59:40.356Z,21
2019-05-21T14:02:14.589Z,21.2
2019-05-21T14:04:47.073Z,21.5
2019-05-21T14:07:19.312Z,21.5
2019-05-21T14:10:22.052Z,21.8
2019-05-21T14:12:32.816Z,21.5
2019-05-21T14:15:05.180Z,21.5
2019-05-21T14:17:37.573Z,21.5
2019-05-21T14:20:10.466Z,21.4
2019-05-21T14:22:42.803Z,21.4
2019-05-21T14:25:15.286Z,21.4
2019-05-21T14:27:47.561Z,21.4
2019-05-21T14:30:20.056Z,21.3
2019-05-21T14:32:52.562Z,21.2
2019-05-21T14:35:25.312Z,21.2
2019-05-21T14:37:57.721Z,21.2
2019-05-21T14:40:33.272Z,21.2
2019-05-21T14:43:05.649Z,20.9
2019-05-21T14:45:38.039Z,20.9
2019-05-21T14:48:10.367Z,20.9
2019-05-21T14:50:42.776Z,20.9
2019-05-21T14:53:15.430Z,20.9
2019-05-21T14:55:47.919Z,20.9
2019-05-21T14:58:20.291Z,21
2019-05-21T15:00:52.859Z,21
2019-05-21T15:03:29.981Z,21.1
2019-05-21T15:06:02.785Z,21.1
2019-05-21T15:08:35.070Z,21.2
2019-05-21T15:11:07.553Z,21.2
2019-05-21T15:13:39.826Z,21.2
2019-05-21T15:16:12.102Z,21.2
2019-05-21T15:18:44.509Z,21.2
2019-05-21T15:21:17.366Z,20.9
2019-05-21T15:23:50.327Z,20.9
2019-05-21T15:26:23.212Z,20.9
2019-05-21T15:28:55.700Z,20.9
2019-05-21T15:31:26.876Z,20.9
2019-05-21T15:34:00.616Z,21
2019-05-21T15:36:34.936Z,21
2019-05-21T15:39:08.833Z,20.9
2019-05-21T15:41:42.688Z,20.9
2019-05-21T15:44:16.699Z,20.8
2019-05-21T15:46:52.570Z,20.8
2019-05-21T15:49:37.569Z,20.7
2019-05-21T15:52:09.110Z,20.5
2019-05-21T15:54:43.095Z,20.5
2019-05-21T15:57:17.094Z,20.4
2019-05-21T15:59:50.863Z,20.4
2019-05-21T16:02:24.760Z,20.3
2019-05-21T16:04:58.649Z,20.3
2019-05-21T16:07:32.993Z,20.1
2019-05-21T16:10:06.746Z,20.1
2019-05-21T16:12:40.552Z,20
2019-05-21T16:15:14.394Z,20
2019-05-21T16:17:48.351Z,20
2019-05-21T16:20:22.166Z,20
2019-05-21T16:22:56.236Z,19.9
2019-05-21T16:25:30.229Z,19.9
2019-05-21T16:28:04.557Z,19.8
2019-05-21T16:30:38.366Z,19.8
2019-05-21T16:33:12.628Z,19.8
2019-05-21T16:35:44.860Z,19.8
2019-05-21T16:38:17.558Z,19.6
2019-05-21T16:40:49.883Z,19.6
2019-05-21T16:43:22.325Z,19.6
2019-05-21T16:45:54.810Z,19.6
2019-05-21T16:48:27.330Z,19.6
2019-05-21T16:50:59.770Z,19.6
2019-05-21T16:53:32.006Z,19.5
2019-05-21T16:56:04.286Z,19.5
2019-05-21T16:58:36.487Z,19.5
2019-05-21T17:01:08.830Z,19.3
2019-05-21T17:03:41.352Z,19.2
2019-05-21T17:06:13.770Z,19.2
2019-05-21T17:08:47.499Z,19.1
2019-05-21T17:11:20.835Z,19
2019-05-21T17:13:55.596Z,19
2019-05-21T17:16:27.879Z,19
2019-05-21T17:19:00.380Z,18.8
2019-05-21T17:21:32.858Z,18.7
2019-05-21T17:24:05.769Z,18.7
2019-05-21T17:26:38.407Z,18.7
2019-05-21T17:29:10.846Z,18.5
2019-05-21T17:31:26.162Z,18.4
2019-05-21T17:33:59.947Z,18.4
2019-05-21T17:36:33.861Z,18.4
2019-05-21T17:39:08.064Z,18.4
2019-05-21T17:41:40.282Z,18.1
2019-05-21T17:44:12.726Z,18.1
2019-05-21T17:46:44.957Z,18.1
2019-05-21T17:49:17.189Z,18
2019-05-21T17:51:49.711Z,17.8
2019-05-21T17:54:22.443Z,17.8
2019-05-21T17:56:54.876Z,17.8
2019-05-21T17:59:27.138Z,17.7
2019-05-21T18:01:59.969Z,17.7
2019-05-21T18:04:32.365Z,17.7
2019-05-21T18:07:04.863Z,17.7
2019-05-21T18:09:37.565Z,17.6
2019-05-21T18:12:10.068Z,17.6
2019-05-21T18:14:42.490Z,17.6
2019-05-21T18:17:15.123Z,17.5
2019-05-21T18:19:48.151Z,17.5
2019-05-21T18:22:20.544Z,17.4
2019-05-21T18:24:53.027Z,17.4
2019-05-21T18:27:25.391Z,17.3
2019-05-21T18:29:57.760Z,17.3
2019-05-21T18:32:30.694Z,17.3
2019-05-21T18:35:02.998Z,17.3
2019-05-21T18:37:35.802Z,17.2
2019-05-21T18:40:08.641Z,17.2
2019-05-21T18:42:41.412Z,17.1
2019-05-21T18:45:14.036Z,17.1
2019-05-21T18:47:46.819Z,16.9
2019-05-21T18:50:33.275Z,16.9
2019-05-21T18:53:00.565Z,16.8
2019-05-21T18:55:32.925Z,16.8
2019-05-21T18:58:05.955Z,16.7
2019-05-21T19:00:38.955Z,16.7
2019-05-21T19:03:11.554Z,16.6
2019-05-21T19:05:43.883Z,16.6
2019-05-21T19:08:16.348Z,16.5
2019-05-21T19:10:48.673Z,16.5
2019-05-21T19:13:21.090Z,16.4
2019-05-21T19:15:53.413Z,16.4
2019-05-21T19:18:27.979Z,16.3
2019-05-21T19:21:00.424Z,16.3
2019-05-21T19:23:33.468Z,16.1
2019-05-21T19:26:06.530Z,16.1
2019-05-21T19:28:39.014Z,16
2019-05-21T19:31:26.667Z,16
2019-05-21T19:34:00.475Z,16
2019-05-21T19:36:34.896Z,16
2019-05-21T19:39:08.988Z,16
2019-05-21T19:41:43.342Z,16
2019-05-21T19:44:17.256Z,16
2019-05-21T19:46:51.136Z,16
2019-05-21T19:49:25.099Z,15.9
2019-05-21T19:51:58.909Z,15.9
2019-05-21T19:54:32.862Z,15.9
2019-05-21T19:57:07.076Z,15.9
2019-05-21T19:59:40.944Z,15.9
2019-05-21T20:02:14.835Z,15.8
2019-05-21T20:04:48.755Z,15.8
2019-05-21T20:07:22.798Z,15.8
2019-05-21T20:09:56.732Z,15.8
2019-05-21T20:12:30.974Z,15.7
2019-05-21T20:15:03.490Z,15.7
2019-05-21T20:17:35.987Z,15.7
2019-05-21T20:20:08.813Z,15.7
2019-05-21T20:22:41.295Z,15.7
2019-05-21T20:25:14.263Z,15.7
2019-05-21T20:27:47.568Z,15.7
2019-05-21T20:30:20.090Z,15.7
2019-05-21T20:32:52.800Z,15.7
2019-05-21T20:35:25.683Z,15.7
2019-05-21T20:37:57.981Z,15.7
2019-05-21T20:40:30.416Z,15.7
2019-05-21T20:43:03.215Z,15.6
2019-05-21T20:45:35.959Z,15.6
2019-05-21T20:48:08.337Z,15.6
2019-05-21T20:50:48.319Z,15.6
2019-05-21T20:53:22.419Z,15.6
2019-05-21T20:55:56.593Z,15.6
2019-05-21T20:58:31.926Z,15.6
2019-05-21T21:01:06.478Z,15.6
2019-05-21T21:03:38.613Z,15.6
2019-05-21T21:06:10.989Z,15.5
2019-05-21T21:08:43.417Z,15.5
2019-05-21T21:11:15.996Z,15.5
2019-05-21T21:13:48.741Z,15.5
2019-05-21T21:16:21.149Z,15.5
2019-05-21T21:18:53.547Z,15.5
2019-05-21T21:21:26.124Z,15.4
2019-05-21T21:23:58.503Z,15.4
2019-05-21T21:26:30.993Z,15.4
2019-05-21T21:29:03.838Z,15.4
2019-05-21T21:31:25.984Z,15.3
2019-05-21T21:33:59.776Z,15.3
2019-05-21T21:36:34.495Z,15.3
2019-05-21T21:39:08.514Z,15.3
2019-05-21T21:41:42.533Z,15.2
2019-05-21T21:44:17.005Z,15.2
2019-05-21T21:46:58.881Z,15.2
2019-05-21T21:49:32.922Z,15.2
2019-05-21T21:52:06.698Z,15.2
2019-05-21T21:54:40.494Z,15.1
2019-05-21T21:57:22.427Z,15.1
2019-05-21T21:59:56.675Z,15.1
2019-05-21T22:02:30.488Z,15.1
2019-05-21T22:05:04.570Z,15.1
2019-05-21T22:07:36.971Z,15.1
2019-05-21T22:10:09.361Z,15.1
2019-05-21T22:12:41.714Z,15
2019-05-21T22:15:14.183Z,15
2019-05-21T22:17:46.402Z,15
2019-05-21T22:20:18.913Z,15
2019-05-21T22:22:51.201Z,14.9
2019-05-21T22:25:23.631Z,14.9
2019-05-21T22:27:55.978Z,14.9
2019-05-21T22:30:28.960Z,14.9
2019-05-21T22:33:01.291Z,14.8
2019-05-21T22:35:33.758Z,14.8
2019-05-21T22:38:06.111Z,14.8
2019-05-21T22:40:38.557Z,14.8
2019-05-21T22:43:11.136Z,14.8
2019-05-21T22:45:44.045Z,14.8
2019-05-21T22:48:16.372Z,14.8
2019-05-21T22:50:48.805Z,14.8
2019-05-21T22:53:21.048Z,14.7
2019-05-21T22:55:53.379Z,14.7
2019-05-21T22:58:25.532Z,14.7
2019-05-21T23:00:58.400Z,14.7
2019-05-21T23:03:30.737Z,14.6
2019-05-21T23:06:03.090Z,14.6
2019-05-21T23:08:35.277Z,14.6
2019-05-21T23:11:07.707Z,14.6
2019-05-21T23:13:39.932Z,14.6
2019-05-21T23:16:12.435Z,14.6
2019-05-21T23:18:44.675Z,14.6
2019-05-21T23:21:17.187Z,14.6
2019-05-21T23:23:49.587Z,14.6
2019-05-21T23:26:22.216Z,14.6
2019-05-21T23:28:54.426Z,14.5
2019-05-21T23:31:26.679Z,14.5
2019-05-21T23:34:00.799Z,14.5
2019-05-21T23:36:33.062Z,14.5
2019-05-21T23:39:05.347Z,14.5
2019-05-21T23:41:37.750Z,14.4
2019-05-21T23:44:10.144Z,14.4
2019-05-21T23:46:42.709Z,14.4
2019-05-21T23:49:15.002Z,14.3
2019-05-21T23:51:47.398Z,14.3
2019-05-21T23:54:19.986Z,14.3
2019-05-21T23:56:52.594Z,14.3
2019-05-21T23:59:24.944Z,14.2
